Date,TemperatureHighF,TemperatureAvgF,TemperatureLowF,DewpointHighF,DewpointAvgF,DewpointLowF,HumidityHigh,HumidityAvg,HumidityLow,PressureMaxIn,PressureMinIn,WindSpeedMaxMPH,WindSpeedAvgMPH,GustSpeedMaxMPH,PrecipitationSumIn
2013-4-1,45.7,36.5,27.9,27.2,22.2,17.8,81,58,35,30.26,29.97,11,2,13,0.00
2013-4-2,49.6,35.5,20.7,26.3,19.9,11.9,89,57,25,30.35,30.26,12,1,12,0.00
2013-4-3,51.2,38.1,25.5,22.2,18.5,14.5,75,49,24,30.46,30.29,10,1,11,0.00
2013-4-4,64.1,45.6,27.6,34.4,25.4,20.8,81,49,21,30.29,30.00,7,1,7,0.00
2013-4-5,60.9,48.8,33.4,36.0,29.4,23.9,84,51,26,30.20,30.02,11,2,14,0.00
2013-4-6,71.7,57.7,45.6,52.9,36.6,24.3,79,47,29,30.02,29.60,26,5,26,0.06
2013-4-7,68.7,54.8,38.0,46.9,43.0,36.1,95,67,41,29.93,29.71,11,1,12,0.00
2013-4-8,73.4,63.4,52.6,59.4,55.0,42.2,96,75,55,29.83,29.55,16,2,16,0.84
2013-4-9,78.2,65.9,51.3,63.2,57.8,47.1,88,76,56,29.83,29.73,13,3,16,0.00
2013-4-10,51.3,45.3,41.3,47.3,43.2,39.2,95,92,86,29.92,29.65,17,3,17,1.14
2013-4-11,49.0,44.6,38.2,46.3,41.5,31.6,96,89,78,29.66,29.59,15,2,16,0.09
2013-4-12,44.6,40.1,37.3,38.0,34.8,32.1,92,81,70,29.93,29.61,11,2,11,0.01
2013-4-13,53.9,44.8,35.4,37.1,32.9,27.1,85,64,46,30.01,29.92,11,1,14,0.00
2013-4-14,76.2,60.7,46.1,55.0,45.0,35.4,79,58,35,29.93,29.53,21,5,22,0.15
2013-4-15,62.7,53.7,43.1,55.2,48.9,38.9,96,84,54,29.99,29.65,11,1,11,0.39
2013-4-16,53.2,46.3,37.1,42.7,38.2,33.9,89,74,57,30.20,29.96,8,1,9,0.00
2013-4-17,58.7,47.9,43.7,57.3,43.5,36.5,97,85,70,30.20,29.66,22,3,22,1.36
2013-4-18,63.4,52.3,38.8,61.3,50.1,32.8,97,92,79,29.73,29.39,19,4,21,1.63
2013-4-19,41.5,38.2,36.0,34.3,31.4,26.5,85,76,68,30.03,29.60,13,2,14,0.01
2013-4-20,51.5,40.4,27.9,35.0,28.8,23.9,93,65,39,30.37,30.03,7,1,7,0.00
2013-4-21,59.2,48.6,38.3,42.0,35.9,29.7,75,62,50,30.43,30.23,18,5,19,0.00
2013-4-22,68.6,57.8,46.0,50.7,40.3,36.5,85,54,33,30.25,29.96,19,3,19,0.02
2013-4-23,55.0,44.5,38.8,51.2,41.9,36.5,94,91,84,30.03,29.91,12,1,12,0.34
2013-4-24,54.2,44.0,36.0,38.5,34.1,28.2,93,71,40,30.15,29.99,11,1,11,0.04
2013-4-25,58.7,48.2,38.2,37.6,34.0,30.3,84,60,36,30.30,30.11,13,1,14,0.02
2013-4-26,64.5,54.8,44.6,48.9,42.3,33.9,80,63,49,30.29,30.21,17,3,17,0.00
2013-4-27,63.6,54.5,43.4,50.6,46.8,41.3,95,77,52,30.26,29.96,14,1,14,0.00
2013-4-28,72.8,60.8,51.9,55.6,51.3,48.9,91,73,47,29.96,29.80,8,1,8,0.00
2013-4-29,78.6,64.6,49.5,61.1,54.9,47.2,92,73,52,29.87,29.66,17,3,19,0.00
2013-4-30,86.2,74.6,62.2,62.6,57.2,51.4,89,58,32,29.87,29.67,18,3,18,0.00